Time;durP1;ratioP1;P1;durP2;ratioP2;P2;SDS_P1;SDS_P2;PMS_P1;PMS_P2;Temp;Humidity;BMP_temperature;BMP_pressure;BME280_temperature;BME280_humidity;BME280_pressure;Samples;Min_cycle;Max_cycle;Signal;HPM_P1;HPM_P2
2023/07/05 00:02:16;;;;;;;;;;;16.10;99.90;;;;;;21001823;28;20294;-74
2023/07/05 00:12:17;;;;;;;;;;;16.10;99.90;;;;;;20975746;28;19921;-74
2023/07/05 00:22:17;;;;;;;;;;;15.90;99.90;;;;;;20992871;28;19916;-73
2023/07/05 00:32:19;;;;;;;;;;;16.00;99.90;;;;;;20978335;28;20471;-74
2023/07/05 00:42:19;;;;;;;;;;;16.40;99.90;;;;;;20987409;28;20042;-74
2023/07/05 00:52:20;;;;;;;;;;;16.30;99.90;;;;;;20999286;28;19971;-73
2023/07/05 01:02:21;;;;;;;;;;;16.10;99.90;;;;;;20996766;28;19951;-73
2023/07/05 01:12:31;;;;;;;;;;;16.00;99.90;;;;;;20992001;28;20310;-74
2023/07/05 01:22:50;;;;;;;;;;;16.00;99.90;;;;;;20961160;28;19916;-74
2023/07/05 01:32:59;;;;;;;;;;;16.10;99.90;;;;;;20969794;28;19924;-74
2023/07/05 01:43:05;;;;;;;;;;;16.10;99.90;;;;;;20965442;28;19938;-74
2023/07/05 01:53:15;;;;;;;;;;;16.20;99.90;;;;;;20974338;28;19939;-74
2023/07/05 02:03:19;;;;;;;;;;;16.20;99.90;;;;;;20972904;28;19952;-74
2023/07/05 02:13:20;;;;;;;;;;;16.10;99.90;;;;;;20988800;28;19924;-73
2023/07/05 02:23:22;;;;;;;;;;;16.20;99.90;;;;;;20967197;28;19934;-74
2023/07/05 02:33:24;;;;;;;;;;;16.10;99.90;;;;;;20968563;28;19916;-73
2023/07/05 02:43:25;;;;;;;;;;;15.60;99.90;;;;;;20972182;28;20290;-74
2023/07/05 02:53:25;;;;;;;;;;;15.70;99.90;;;;;;20955806;28;19943;-74
2023/07/05 03:03:26;;;;;;;;;;;15.70;99.90;;;;;;20975280;28;20424;-73
2023/07/05 03:13:31;;;;;;;;;;;15.90;99.90;;;;;;20955521;28;19921;-73
2023/07/05 03:23:31;;;;;;;;;;;15.80;99.90;;;;;;20970344;28;19912;-74
2023/07/05 03:33:33;;;;;;;;;;;15.80;99.90;;;;;;20978338;28;20437;-74
2023/07/05 03:43:35;;;;;;;;;;;15.90;99.90;;;;;;21002065;28;19913;-74
2023/07/05 03:53:36;;;;;;;;;;;15.80;99.90;;;;;;20989296;28;19916;-74
2023/07/05 04:03:36;;;;;;;;;;;15.90;99.90;;;;;;20976724;28;20002;-75
2023/07/05 04:13:37;;;;;;;;;;;16.10;99.90;;;;;;20961219;28;19924;-75
2023/07/05 04:23:39;;;;;;;;;;;16.00;99.90;;;;;;20985416;28;20050;-75
2023/07/05 04:33:39;;;;;;;;;;;16.00;99.90;;;;;;20960992;28;19917;-75
2023/07/05 04:43:40;;;;;;;;;;;16.20;99.90;;;;;;20968201;28;20342;-75
2023/07/05 04:53:41;;;;;;;;;;;16.40;99.90;;;;;;20980698;28;19916;-75
2023/07/05 05:03:41;;;;;;;;;;;16.50;99.90;;;;;;20978843;28;19913;-75
2023/07/05 05:13:42;;;;;;;;;;;16.60;99.90;;;;;;20946904;28;19923;-75
2023/07/05 05:23:43;;;;;;;;;;;16.80;99.90;;;;;;20946835;28;19919;-75
2023/07/05 05:33:43;;;;;;;;;;;17.10;99.90;;;;;;20995987;22;19924;-74
2023/07/05 05:43:45;;;;;;;;;;;17.40;99.90;;;;;;21079102;28;20332;-75
2023/07/05 05:53:45;;;;;;;;;;;17.40;99.90;;;;;;21056773;28;20341;-75
2023/07/05 06:03:46;;;;;;;;;;;18.10;99.90;;;;;;20900617;28;19947;-75
2023/07/05 06:13:47;;;;;;;;;;;18.50;99.90;;;;;;20940345;28;19917;-75
2023/07/05 06:23:48;;;;;;;;;;;18.70;99.90;;;;;;20978931;28;19959;-73
2023/07/05 06:33:48;;;;;;;;;;;18.10;99.90;;;;;;20909028;28;19948;-73
2023/07/05 06:43:49;;;;;;;;;;;18.20;99.90;;;;;;20908503;28;19916;-73
2023/07/05 06:53:50;;;;;;;;;;;18.10;99.90;;;;;;20907472;28;19917;-73
2023/07/05 07:03:50;;;;;;;;;;;17.70;99.90;;;;;;20919633;28;19913;-75
2023/07/05 07:13:51;;;;;;;;;;;17.30;99.90;;;;;;20954819;28;19924;-74
2023/07/05 07:23:52;;;;;;;;;;;16.40;99.90;;;;;;21000008;28;19921;-74
2023/07/05 07:33:52;;;;;;;;;;;16.00;99.90;;;;;;20979682;28;20374;-75
2023/07/05 07:43:54;;;;;;;;;;;16.00;99.90;;;;;;20997025;28;19913;-75
2023/07/05 07:53:55;;;;;;;;;;;16.20;99.90;;;;;;20971718;28;20000;-76
2023/07/05 08:03:57;;;;;;;;;;;17.20;99.90;;;;;;20908615;28;19913;-76
2023/07/05 08:13:57;;;;;;;;;;;18.30;99.90;;;;;;20995651;28;19920;-76
2023/07/05 08:23:58;;;;;;;;;;;17.90;99.90;;;;;;20979242;28;19912;-76
2023/07/05 08:33:59;;;;;;;;;;;18.60;99.90;;;;;;20936073;28;20333;-76
2023/07/05 08:44:02;;;;;;;;;;;17.90;99.90;;;;;;20982781;28;19920;-76
2023/07/05 08:54:10;;;;;;;;;;;18.40;99.90;;;;;;20917320;28;20056;-76
2023/07/05 09:04:12;;;;;;;;;;;19.40;99.90;;;;;;20915650;28;19919;-76
2023/07/05 09:14:22;;;;;;;;;;;18.30;99.90;;;;;;21011689;28;20327;-76
2023/07/05 09:24:24;;;;;;;;;;;17.80;99.90;;;;;;21025202;28;19913;-76
2023/07/05 09:34:25;;;;;;;;;;;18.40;99.90;;;;;;20928468;28;19916;-75
2023/07/05 09:44:25;;;;;;;;;;;18.40;99.90;;;;;;20967710;28;19920;-75
2023/07/05 09:54:30;;;;;;;;;;;20.20;99.90;;;;;;20951100;28;19943;-75
2023/07/05 10:04:31;;;;;;;;;;;19.90;99.90;;;;;;20949367;28;19912;-76
2023/07/05 10:14:33;;;;;;;;;;;20.80;99.90;;;;;;20949431;28;20297;-75
2023/07/05 10:24:45;;;;;;;;;;;20.60;99.90;;;;;;20949708;28;19919;-75
2023/07/05 10:34:50;;;;;;;;;;;20.80;99.90;;;;;;20947887;28;19923;-73
2023/07/05 10:44:51;;;;;;;;;;;20.10;99.90;;;;;;20960826;28;20290;-74
2023/07/05 10:55:13;;;;;;;;;;;20.00;99.90;;;;;;20920784;28;19912;-74
2023/07/05 11:05:25;;;;;;;;;;;20.50;99.90;;;;;;20889126;28;19923;-74
2023/07/05 11:15:27;;;;;;;;;;;20.20;99.90;;;;;;20952584;28;19920;-75
2023/07/05 11:26:00;;;;;;;;;;;21.10;99.90;;;;;;20914613;28;19916;-74
2023/07/05 11:36:24;;;;;;;;;;;21.50;99.90;;;;;;20903385;23;20295;-75
2023/07/05 11:46:37;;;;;;;;;;;22.30;99.90;;;;;;20986652;28;19916;-75
2023/07/05 11:56:39;;;;;;;;;;;22.30;99.90;;;;;;21003189;28;19917;-75
2023/07/05 12:06:41;;;;;;;;;;;22.00;99.90;;;;;;20992594;28;19923;-75
2023/07/05 12:16:42;;;;;;;;;;;21.70;99.90;;;;;;20986967;28;19913;-77
2023/07/05 12:26:43;;;;;;;;;;;23.00;99.90;;;;;;20972528;28;19923;-76
2023/07/05 12:36:43;;;;;;;;;;;22.60;99.90;;;;;;20977648;28;20355;-77
2023/07/05 12:46:45;;;;;;;;;;;23.30;99.90;;;;;;20960447;28;20386;-77
2023/07/05 12:56:46;;;;;;;;;;;23.30;99.90;;;;;;20986498;28;19912;-76
2023/07/05 13:06:48;;;;;;;;;;;23.80;99.90;;;;;;20993525;28;19916;-77
2023/07/05 13:16:56;;;;;;;;;;;22.90;99.90;;;;;;20979609;28;19912;-76
2023/07/05 13:26:57;;;;;;;;;;;23.30;99.90;;;;;;20940549;28;20011;-77
2023/07/05 13:37:02;;;;;;;;;;;23.80;99.90;;;;;;20980236;28;19966;-77
2023/07/05 13:47:03;;;;;;;;;;;24.10;99.90;;;;;;20987761;28;19970;-77
2023/07/05 13:57:09;;;;;;;;;;;23.60;99.90;;;;;;20976966;28;20381;-76
2023/07/05 14:07:09;;;;;;;;;;;23.70;99.90;;;;;;20976667;28;19922;-78
2023/07/05 14:17:17;;;;;;;;;;;23.70;99.70;;;;;;20961023;28;19948;-77
2023/07/05 14:27:22;;;;;;;;;;;24.00;99.90;;;;;;20983306;28;19916;-77
2023/07/05 14:37:23;;;;;;;;;;;24.10;99.30;;;;;;20876914;28;1797955;-77
2023/07/05 14:47:24;;;;;;;;;;;24.00;99.90;;;;;;20967045;28;20432;-77
2023/07/05 14:57:25;;;;;;;;;;;23.70;99.90;;;;;;20954660;28;20324;-76
2023/07/05 15:07:26;;;;;;;;;;;23.70;99.50;;;;;;20934527;28;19917;-77
2023/07/05 15:17:27;;;;;;;;;;;24.50;99.20;;;;;;20968304;28;19916;-75
2023/07/05 15:27:27;;;;;;;;;;;23.70;99.00;;;;;;20998415;28;19956;-77
2023/07/05 15:37:28;;;;;;;;;;;23.70;99.70;;;;;;20997034;28;19955;-77
2023/07/05 15:47:29;;;;;;;;;;;23.50;99.10;;;;;;20985282;28;19970;-77
2023/07/05 15:57:30;;;;;;;;;;;23.50;99.90;;;;;;20978782;28;19922;-77
2023/07/05 16:07:31;;;;;;;;;;;23.70;99.30;;;;;;20973484;28;20410;-77
2023/07/05 16:17:31;;;;;;;;;;;23.50;99.30;;;;;;20966605;28;20351;-77
2023/07/05 16:27:32;;;;;;;;;;;23.20;98.10;;;;;;20967788;28;19921;-77
2023/07/05 16:37:33;;;;;;;;;;;23.00;99.90;;;;;;20974843;28;20007;-76
2023/07/05 16:47:33;;;;;;;;;;;23.00;99.50;;;;;;20967490;28;19962;-77
2023/07/05 16:57:34;;;;;;;;;;;22.60;99.80;;;;;;20963036;28;19920;-77
2023/07/05 17:07:35;;;;;;;;;;;22.70;99.70;;;;;;20969371;28;20374;-77
2023/07/05 17:17:35;;;;;;;;;;;22.70;99.90;;;;;;20994876;28;19958;-76
2023/07/05 17:27:36;;;;;;;;;;;22.50;99.80;;;;;;20996270;28;19923;-76
2023/07/05 17:37:37;;;;;;;;;;;22.70;99.70;;;;;;20994169;22;19924;-72
2023/07/05 17:47:39;;;;;;;;;;;22.60;99.60;;;;;;20920417;28;19952;-72
2023/07/05 17:57:40;;;;;;;;;;;22.70;99.50;;;;;;20914684;28;19916;-74
2023/07/05 18:07:41;;;;;;;;;;;22.70;97.70;;;;;;20907582;28;20011;-74
2023/07/05 18:17:42;;;;;;;;;;;23.60;97.50;;;;;;20901378;28;20037;-75
2023/07/05 18:27:42;;;;;;;;;;;24.00;96.40;;;;;;20882527;28;20064;-74
2023/07/05 18:37:44;;;;;;;;;;;23.60;95.50;;;;;;20877298;28;19923;-74
2023/07/05 18:47:45;;;;;;;;;;;21.70;97.90;;;;;;20905572;28;19962;-74
2023/07/05 18:57:45;;;;;;;;;;;20.70;99.80;;;;;;20882608;28;19916;-74
2023/07/05 19:07:46;;;;;;;;;;;20.20;99.90;;;;;;20893593;28;19993;-73
2023/07/05 19:17:48;;;;;;;;;;;19.70;99.90;;;;;;20903371;28;19999;-74
2023/07/05 19:27:49;;;;;;;;;;;18.80;99.90;;;;;;20881729;28;20375;-73
2023/07/05 19:37:50;;;;;;;;;;;18.20;99.90;;;;;;20902582;28;20287;-73
2023/07/05 19:47:51;;;;;;;;;;;17.70;99.90;;;;;;20904372;28;19921;-73
2023/07/05 19:57:51;;;;;;;;;;;17.50;99.90;;;;;;20902644;28;19917;-73
2023/07/05 20:07:52;;;;;;;;;;;17.30;99.90;;;;;;20896210;28;19916;-73
2023/07/05 20:17:53;;;;;;;;;;;17.50;99.90;;;;;;20876484;28;19921;-74
2023/07/05 20:27:54;;;;;;;;;;;17.00;99.90;;;;;;20906966;28;19978;-74
2023/07/05 20:37:55;;;;;;;;;;;16.50;99.90;;;;;;20901728;28;19944;-76
2023/07/05 20:47:56;;;;;;;;;;;16.00;99.90;;;;;;20911207;28;19963;-75
2023/07/05 20:57:57;;;;;;;;;;;16.10;99.90;;;;;;20907487;28;19948;-75
2023/07/05 21:07:58;;;;;;;;;;;15.80;99.90;;;;;;20907343;28;19917;-75
2023/07/05 21:17:59;;;;;;;;;;;15.60;99.90;;;;;;20930053;28;20007;-75
2023/07/05 21:28:00;;;;;;;;;;;15.50;99.90;;;;;;20977849;28;20378;-75
2023/07/05 21:38:00;;;;;;;;;;;15.70;99.90;;;;;;20935851;28;19924;-75
2023/07/05 21:48:03;;;;;;;;;;;15.90;99.90;;;;;;20922143;28;19921;-75
2023/07/05 21:58:05;;;;;;;;;;;15.70;99.90;;;;;;20908899;28;19913;-75
2023/07/05 22:08:06;;;;;;;;;;;15.60;99.90;;;;;;20911737;28;19939;-74
2023/07/05 22:18:07;;;;;;;;;;;15.60;99.90;;;;;;20901464;28;19913;-74
2023/07/05 22:28:07;;;;;;;;;;;15.30;99.90;;;;;;20894540;28;19970;-74
2023/07/05 22:38:08;;;;;;;;;;;15.00;99.90;;;;;;20903365;28;20393;-74
2023/07/05 22:48:09;;;;;;;;;;;14.90;99.90;;;;;;20865812;28;19917;-74
2023/07/05 22:58:09;;;;;;;;;;;14.60;99.90;;;;;;20906681;28;19951;-74
2023/07/05 23:08:10;;;;;;;;;;;14.60;99.90;;;;;;20905974;28;19975;-74
2023/07/05 23:18:12;;;;;;;;;;;14.40;99.90;;;;;;20906541;28;19913;-74
2023/07/05 23:28:13;;;;;;;;;;;13.90;99.90;;;;;;20906293;28;19916;-74
2023/07/05 23:38:13;;;;;;;;;;;13.80;99.90;;;;;;20909140;23;19924;-73
2023/07/05 23:48:16;;;;;;;;;;;13.90;99.90;;;;;;20921026;28;19967;-73
2023/07/05 23:58:16;;;;;;;;;;;13.90;99.90;;;;;;20920831;28;20334;-74
